sensor_id;sensor_type;location;lat;lon;timestamp;temperature;humidity
15700;DHT22;7950;42.744;23.174;2023-09-08T00:00:05;18.30;99.90
15700;DHT22;7950;42.744;23.174;2023-09-08T00:02:36;18.30;99.90
15700;DHT22;7950;42.744;23.174;2023-09-08T00:05:06;18.30;99.90
15700;DHT22;7950;42.744;23.174;2023-09-08T00:07:35;18.30;99.90
15700;DHT22;7950;42.744;23.174;2023-09-08T00:10:04;18.30;99.90
15700;DHT22;7950;42.744;23.174;2023-09-08T00:12:33;18.30;99.90
15700;DHT22;7950;42.744;23.174;2023-09-08T00:15:02;18.30;99.90
15700;DHT22;7950;42.744;23.174;2023-09-08T00:17:31;18.40;99.90
15700;DHT22;7950;42.744;23.174;2023-09-08T00:20:00;18.40;99.90
15700;DHT22;7950;42.744;23.174;2023-09-08T00:22:31;18.50;99.90
15700;DHT22;7950;42.744;23.174;2023-09-08T00:25:00;18.50;99.90
15700;DHT22;7950;42.744;23.174;2023-09-08T00:27:28;18.50;99.90
15700;DHT22;7950;42.744;23.174;2023-09-08T00:29:57;18.50;99.90
15700;DHT22;7950;42.744;23.174;2023-09-08T00:32:28;18.50;99.90
15700;DHT22;7950;42.744;23.174;2023-09-08T00:34:57;18.50;99.90
15700;DHT22;7950;42.744;23.174;2023-09-08T00:37:26;18.40;99.90
15700;DHT22;7950;42.744;23.174;2023-09-08T00:39:56;18.40;99.90
15700;DHT22;7950;42.744;23.174;2023-09-08T00:42:25;18.40;99.90
15700;DHT22;7950;42.744;23.174;2023-09-08T00:44:53;18.40;99.90
15700;DHT22;7950;42.744;23.174;2023-09-08T00:47:22;18.30;99.90
15700;DHT22;7950;42.744;23.174;2023-09-08T00:49:51;18.30;99.90
15700;DHT22;7950;42.744;23.174;2023-09-08T00:52:20;18.20;99.90
15700;DHT22;7950;42.744;23.174;2023-09-08T00:54:48;18.20;99.90
15700;DHT22;7950;42.744;23.174;2023-09-08T00:57:19;18.10;99.90
15700;DHT22;7950;42.744;23.174;2023-09-08T00:59:47;18.10;99.90
15700;DHT22;7950;42.744;23.174;2023-09-08T01:02:16;18.00;99.90
15700;DHT22;7950;42.744;23.174;2023-09-08T01:04:45;18.00;99.90
15700;DHT22;7950;42.744;23.174;2023-09-08T01:07:14;17.90;99.90
15700;DHT22;7950;42.744;23.174;2023-09-08T01:09:45;17.80;99.90
15700;DHT22;7950;42.744;23.174;2023-09-08T01:12:15;17.80;99.90
15700;DHT22;7950;42.744;23.174;2023-09-08T01:14:45;17.70;99.90
15700;DHT22;7950;42.744;23.174;2023-09-08T01:17:14;17.70;99.90
15700;DHT22;7950;42.744;23.174;2023-09-08T01:19:43;17.70;99.90
15700;DHT22;7950;42.744;23.174;2023-09-08T01:22:39;17.60;99.90
15700;DHT22;7950;42.744;23.174;2023-09-08T01:25:22;17.60;99.90
15700;DHT22;7950;42.744;23.174;2023-09-08T01:27:53;17.60;99.90
15700;DHT22;7950;42.744;23.174;2023-09-08T01:30:24;17.50;99.90
15700;DHT22;7950;42.744;23.174;2023-09-08T01:32:56;17.50;99.90
15700;DHT22;7950;42.744;23.174;2023-09-08T01:35:25;17.50;99.90
15700;DHT22;7950;42.744;23.174;2023-09-08T01:37:54;17.50;99.90
15700;DHT22;7950;42.744;23.174;2023-09-08T01:40:24;17.40;99.90
15700;DHT22;7950;42.744;23.174;2023-09-08T01:42:53;17.40;99.90
15700;DHT22;7950;42.744;23.174;2023-09-08T01:45:22;17.40;99.90
15700;DHT22;7950;42.744;23.174;2023-09-08T01:47:51;17.40;99.90
15700;DHT22;7950;42.744;23.174;2023-09-08T01:50:19;17.40;99.90
15700;DHT22;7950;42.744;23.174;2023-09-08T01:52:49;17.40;99.90
15700;DHT22;7950;42.744;23.174;2023-09-08T01:55:17;17.30;99.90
15700;DHT22;7950;42.744;23.174;2023-09-08T01:57:49;17.30;99.90
15700;DHT22;7950;42.744;23.174;2023-09-08T02:00:17;17.30;99.90
15700;DHT22;7950;42.744;23.174;2023-09-08T02:02:46;17.30;99.90
15700;DHT22;7950;42.744;23.174;2023-09-08T02:05:15;17.30;99.90
15700;DHT22;7950;42.744;23.174;2023-09-08T02:07:45;17.30;99.90
15700;DHT22;7950;42.744;23.174;2023-09-08T02:10:13;17.30;99.90
15700;DHT22;7950;42.744;23.174;2023-09-08T02:12:42;17.30;99.90
15700;DHT22;7950;42.744;23.174;2023-09-08T02:15:12;17.30;99.90
15700;DHT22;7950;42.744;23.174;2023-09-08T02:17:44;17.30;99.90
15700;DHT22;7950;42.744;23.174;2023-09-08T02:20:12;17.30;99.90
15700;DHT22;7950;42.744;23.174;2023-09-08T02:22:41;17.30;99.90
15700;DHT22;7950;42.744;23.174;2023-09-08T02:25:09;17.30;99.90
15700;DHT22;7950;42.744;23.174;2023-09-08T02:27:38;17.30;99.90
15700;DHT22;7950;42.744;23.174;2023-09-08T02:30:07;17.30;99.90
15700;DHT22;7950;42.744;23.174;2023-09-08T02:32:38;17.30;99.90
15700;DHT22;7950;42.744;23.174;2023-09-08T02:35:10;17.30;99.90
15700;DHT22;7950;42.744;23.174;2023-09-08T02:37:39;17.30;99.90
15700;DHT22;7950;42.744;23.174;2023-09-08T02:40:08;17.20;99.90
15700;DHT22;7950;42.744;23.174;2023-09-08T02:42:36;17.20;99.90
15700;DHT22;7950;42.744;23.174;2023-09-08T02:45:06;17.20;99.90
15700;DHT22;7950;42.744;23.174;2023-09-08T02:47:35;17.20;99.90
15700;DHT22;7950;42.744;23.174;2023-09-08T02:50:06;17.20;99.90
15700;DHT22;7950;42.744;23.174;2023-09-08T02:52:35;17.20;99.90
15700;DHT22;7950;42.744;23.174;2023-09-08T02:55:04;17.10;99.90
15700;DHT22;7950;42.744;23.174;2023-09-08T02:57:33;17.10;99.90
15700;DHT22;7950;42.744;23.174;2023-09-08T03:00:03;17.10;99.90
15700;DHT22;7950;42.744;23.174;2023-09-08T03:02:33;17.10;99.90
15700;DHT22;7950;42.744;23.174;2023-09-08T03:05:02;17.00;99.90
15700;DHT22;7950;42.744;23.174;2023-09-08T03:07:33;16.90;99.90
15700;DHT22;7950;42.744;23.174;2023-09-08T03:10:05;16.90;99.90
15700;DHT22;7950;42.744;23.174;2023-09-08T03:12:34;16.80;99.90
15700;DHT22;7950;42.744;23.174;2023-09-08T03:15:03;16.70;99.90
15700;DHT22;7950;42.744;23.174;2023-09-08T03:17:33;16.70;99.90
15700;DHT22;7950;42.744;23.174;2023-09-08T03:20:02;16.70;99.90
15700;DHT22;7950;42.744;23.174;2023-09-08T03:22:36;16.60;99.90
15700;DHT22;7950;42.744;23.174;2023-09-08T03:25:05;16.60;99.90
15700;DHT22;7950;42.744;23.174;2023-09-08T03:27:34;16.50;99.90
15700;DHT22;7950;42.744;23.174;2023-09-08T03:30:03;16.50;99.90
15700;DHT22;7950;42.744;23.174;2023-09-08T03:32:32;16.40;99.90
15700;DHT22;7950;42.744;23.174;2023-09-08T03:35:01;16.30;99.90
15700;DHT22;7950;42.744;23.174;2023-09-08T03:37:36;16.30;99.90
15700;DHT22;7950;42.744;23.174;2023-09-08T03:40:05;16.30;99.90
15700;DHT22;7950;42.744;23.174;2023-09-08T03:42:36;16.20;99.90
15700;DHT22;7950;42.744;23.174;2023-09-08T03:45:05;16.00;99.90
15700;DHT22;7950;42.744;23.174;2023-09-08T03:47:34;16.00;99.90
15700;DHT22;7950;42.744;23.174;2023-09-08T03:50:04;15.90;99.90
15700;DHT22;7950;42.744;23.174;2023-09-08T03:52:35;15.90;99.90
15700;DHT22;7950;42.744;23.174;2023-09-08T03:55:04;15.80;99.90
15700;DHT22;7950;42.744;23.174;2023-09-08T03:57:33;15.80;99.90
15700;DHT22;7950;42.744;23.174;2023-09-08T04:00:02;15.80;99.90
15700;DHT22;7950;42.744;23.174;2023-09-08T04:02:33;15.80;99.90
15700;DHT22;7950;42.744;23.174;2023-09-08T04:05:03;15.80;99.90
15700;DHT22;7950;42.744;23.174;2023-09-08T04:07:32;15.80;99.90
15700;DHT22;7950;42.744;23.174;2023-09-08T04:10:02;15.70;99.90
15700;DHT22;7950;42.744;23.174;2023-09-08T04:12:31;15.70;99.90
15700;DHT22;7950;42.744;23.174;2023-09-08T04:15:00;15.70;99.90
15700;DHT22;7950;42.744;23.174;2023-09-08T04:17:29;15.70;99.90
15700;DHT22;7950;42.744;23.174;2023-09-08T04:19:57;15.60;99.90
15700;DHT22;7950;42.744;23.174;2023-09-08T04:22:26;15.60;99.90
15700;DHT22;7950;42.744;23.174;2023-09-08T04:24:55;15.60;99.90
15700;DHT22;7950;42.744;23.174;2023-09-08T04:27:25;15.60;99.90
15700;DHT22;7950;42.744;23.174;2023-09-08T04:29:54;15.60;99.90
15700;DHT22;7950;42.744;23.174;2023-09-08T04:32:23;15.60;99.90
15700;DHT22;7950;42.744;23.174;2023-09-08T04:34:51;15.60;99.90
15700;DHT22;7950;42.744;23.174;2023-09-08T04:37:20;15.60;99.90
15700;DHT22;7950;42.744;23.174;2023-09-08T04:39:48;15.70;99.90
15700;DHT22;7950;42.744;23.174;2023-09-08T04:42:17;15.70;99.90
15700;DHT22;7950;42.744;23.174;2023-09-08T04:44:47;15.70;99.90
15700;DHT22;7950;42.744;23.174;2023-09-08T04:47:16;15.80;99.90
15700;DHT22;7950;42.744;23.174;2023-09-08T04:49:45;15.90;99.90
15700;DHT22;7950;42.744;23.174;2023-09-08T04:52:13;15.90;99.90
15700;DHT22;7950;42.744;23.174;2023-09-08T04:54:42;16.00;99.90
15700;DHT22;7950;42.744;23.174;2023-09-08T04:57:11;16.10;99.90
15700;DHT22;7950;42.744;23.174;2023-09-08T04:59:51;16.10;99.90
15700;DHT22;7950;42.744;23.174;2023-09-08T05:02:19;16.20;99.90
15700;DHT22;7950;42.744;23.174;2023-09-08T05:04:48;16.30;99.90
15700;DHT22;7950;42.744;23.174;2023-09-08T05:07:17;16.30;99.90
15700;DHT22;7950;42.744;23.174;2023-09-08T05:09:46;16.50;99.90
15700;DHT22;7950;42.744;23.174;2023-09-08T05:12:15;16.60;99.90
15700;DHT22;7950;42.744;23.174;2023-09-08T05:14:43;16.70;99.90
15700;DHT22;7950;42.744;23.174;2023-09-08T05:17:14;16.70;99.90
15700;DHT22;7950;42.744;23.174;2023-09-08T05:19:42;16.90;99.90
15700;DHT22;7950;42.744;23.174;2023-09-08T05:22:11;17.00;99.90
15700;DHT22;7950;42.744;23.174;2023-09-08T05:24:40;17.10;99.90
15700;DHT22;7950;42.744;23.174;2023-09-08T05:27:09;17.20;99.90
15700;DHT22;7950;42.744;23.174;2023-09-08T05:29:38;17.40;99.90
15700;DHT22;7950;42.744;23.174;2023-09-08T05:32:07;17.50;99.90
15700;DHT22;7950;42.744;23.174;2023-09-08T05:34:37;17.60;99.90
15700;DHT22;7950;42.744;23.174;2023-09-08T05:37:06;17.70;99.90
15700;DHT22;7950;42.744;23.174;2023-09-08T05:39:35;17.80;99.90
15700;DHT22;7950;42.744;23.174;2023-09-08T05:42:04;17.90;99.90
15700;DHT22;7950;42.744;23.174;2023-09-08T05:44:33;18.10;99.90
15700;DHT22;7950;42.744;23.174;2023-09-08T05:47:02;18.30;99.90
15700;DHT22;7950;42.744;23.174;2023-09-08T05:49:32;18.40;99.90
15700;DHT22;7950;42.744;23.174;2023-09-08T05:52:05;18.60;99.90
15700;DHT22;7950;42.744;23.174;2023-09-08T05:54:34;18.70;99.90
15700;DHT22;7950;42.744;23.174;2023-09-08T05:57:02;18.90;99.90
15700;DHT22;7950;42.744;23.174;2023-09-08T05:59:31;19.10;99.90
15700;DHT22;7950;42.744;23.174;2023-09-08T06:02:00;19.40;99.90
15700;DHT22;7950;42.744;23.174;2023-09-08T06:04:29;19.50;99.90
15700;DHT22;7950;42.744;23.174;2023-09-08T06:06:59;19.60;99.90
15700;DHT22;7950;42.744;23.174;2023-09-08T06:09:29;19.70;99.90
15700;DHT22;7950;42.744;23.174;2023-09-08T06:11:58;19.90;99.90
15700;DHT22;7950;42.744;23.174;2023-09-08T06:14:27;20.00;99.90
15700;DHT22;7950;42.744;23.174;2023-09-08T06:16:56;20.00;99.90
15700;DHT22;7950;42.744;23.174;2023-09-08T06:19:24;20.10;99.90
15700;DHT22;7950;42.744;23.174;2023-09-08T06:21:53;20.20;99.90
15700;DHT22;7950;42.744;23.174;2023-09-08T06:24:22;20.40;99.90
15700;DHT22;7950;42.744;23.174;2023-09-08T06:26:52;20.60;99.90
15700;DHT22;7950;42.744;23.174;2023-09-08T06:29:21;20.70;99.90
15700;DHT22;7950;42.744;23.174;2023-09-08T06:31:50;20.80;99.90
15700;DHT22;7950;42.744;23.174;2023-09-08T06:34:18;20.80;99.90
15700;DHT22;7950;42.744;23.174;2023-09-08T06:36:49;20.80;99.90
15700;DHT22;7950;42.744;23.174;2023-09-08T06:39:18;20.80;99.90
15700;DHT22;7950;42.744;23.174;2023-09-08T06:41:46;20.80;99.90
15700;DHT22;7950;42.744;23.174;2023-09-08T06:44:16;20.70;99.90
15700;DHT22;7950;42.744;23.174;2023-09-08T06:46:45;20.70;99.90
15700;DHT22;7950;42.744;23.174;2023-09-08T06:49:14;20.80;99.90
15700;DHT22;7950;42.744;23.174;2023-09-08T06:51:42;20.90;99.90
15700;DHT22;7950;42.744;23.174;2023-09-08T06:54:11;21.00;99.90
15700;DHT22;7950;42.744;23.174;2023-09-08T06:56:40;21.00;99.90
15700;DHT22;7950;42.744;23.174;2023-09-08T06:59:09;21.10;99.90
15700;DHT22;7950;42.744;23.174;2023-09-08T07:01:39;21.20;99.90
15700;DHT22;7950;42.744;23.174;2023-09-08T07:04:07;21.20;99.90
15700;DHT22;7950;42.744;23.174;2023-09-08T07:06:38;21.20;99.90
15700;DHT22;7950;42.744;23.174;2023-09-08T07:09:08;21.30;99.90
15700;DHT22;7950;42.744;23.174;2023-09-08T07:11:37;21.40;99.90
15700;DHT22;7950;42.744;23.174;2023-09-08T07:14:06;21.50;99.90
15700;DHT22;7950;42.744;23.174;2023-09-08T07:16:35;21.50;99.90
15700;DHT22;7950;42.744;23.174;2023-09-08T07:19:05;21.50;99.90
15700;DHT22;7950;42.744;23.174;2023-09-08T07:21:34;21.60;99.90
15700;DHT22;7950;42.744;23.174;2023-09-08T07:24:03;21.60;99.90
15700;DHT22;7950;42.744;23.174;2023-09-08T07:26:32;21.70;99.90
15700;DHT22;7950;42.744;23.174;2023-09-08T07:29:00;21.70;99.90
15700;DHT22;7950;42.744;23.174;2023-09-08T07:31:29;21.70;99.90
15700;DHT22;7950;42.744;23.174;2023-09-08T07:33:57;21.80;99.90
15700;DHT22;7950;42.744;23.174;2023-09-08T07:36:28;21.90;99.90
15700;DHT22;7950;42.744;23.174;2023-09-08T07:38:56;21.90;99.90
15700;DHT22;7950;42.744;23.174;2023-09-08T07:41:25;22.00;99.90
15700;DHT22;7950;42.744;23.174;2023-09-08T07:43:53;22.10;99.50
15700;DHT22;7950;42.744;23.174;2023-09-08T07:46:22;22.10;97.70
15700;DHT22;7950;42.744;23.174;2023-09-08T07:48:51;22.20;97.30
15700;DHT22;7950;42.744;23.174;2023-09-08T07:51:20;22.20;98.80
15700;DHT22;7950;42.744;23.174;2023-09-08T07:53:50;22.40;95.80
15700;DHT22;7950;42.744;23.174;2023-09-08T07:56:19;22.40;93.90
15700;DHT22;7950;42.744;23.174;2023-09-08T07:58:48;22.40;94.40
15700;DHT22;7950;42.744;23.174;2023-09-08T08:01:17;22.40;94.40
15700;DHT22;7950;42.744;23.174;2023-09-08T08:03:45;22.50;94.90
15700;DHT22;7950;42.744;23.174;2023-09-08T08:06:14;22.60;95.10
15700;DHT22;7950;42.744;23.174;2023-09-08T08:08:43;22.70;93.10
15700;DHT22;7950;42.744;23.174;2023-09-08T08:11:15;22.90;90.60
15700;DHT22;7950;42.744;23.174;2023-09-08T08:13:45;22.90;90.00
15700;DHT22;7950;42.744;23.174;2023-09-08T08:16:14;22.90;90.00
15700;DHT22;7950;42.744;23.174;2023-09-08T08:18:43;22.90;91.80
15700;DHT22;7950;42.744;23.174;2023-09-08T08:21:12;23.10;93.00
15700;DHT22;7950;42.744;23.174;2023-09-08T08:23:40;23.40;89.20
15700;DHT22;7950;42.744;23.174;2023-09-08T08:26:09;23.60;87.60
15700;DHT22;7950;42.744;23.174;2023-09-08T08:28:39;23.70;84.90
15700;DHT22;7950;42.744;23.174;2023-09-08T08:31:08;23.60;82.50
15700;DHT22;7950;42.744;23.174;2023-09-08T08:33:36;23.70;83.70
15700;DHT22;7950;42.744;23.174;2023-09-08T08:36:06;23.80;80.70
15700;DHT22;7950;42.744;23.174;2023-09-08T08:38:36;24.10;80.30
15700;DHT22;7950;42.744;23.174;2023-09-08T08:41:05;24.20;77.90
15700;DHT22;7950;42.744;23.174;2023-09-08T08:43:34;24.40;76.60
15700;DHT22;7950;42.744;23.174;2023-09-08T08:46:04;24.50;76.40
15700;DHT22;7950;42.744;23.174;2023-09-08T08:48:34;24.50;78.00
15700;DHT22;7950;42.744;23.174;2023-09-08T08:51:05;24.60;74.20
15700;DHT22;7950;42.744;23.174;2023-09-08T08:53:37;24.40;69.30
15700;DHT22;7950;42.744;23.174;2023-09-08T08:56:07;24.30;69.80
15700;DHT22;7950;42.744;23.174;2023-09-08T08:58:39;24.30;71.20
15700;DHT22;7950;42.744;23.174;2023-09-08T09:01:12;24.10;68.40
15700;DHT22;7950;42.744;23.174;2023-09-08T09:03:41;23.80;68.30
15700;DHT22;7950;42.744;23.174;2023-09-08T09:06:10;23.70;71.60
15700;DHT22;7950;42.744;23.174;2023-09-08T09:08:40;23.70;70.70
15700;DHT22;7950;42.744;23.174;2023-09-08T09:11:11;23.70;71.60
15700;DHT22;7950;42.744;23.174;2023-09-08T09:13:39;23.80;73.40
15700;DHT22;7950;42.744;23.174;2023-09-08T09:16:08;24.00;71.60
15700;DHT22;7950;42.744;23.174;2023-09-08T09:18:55;24.20;71.60
15700;DHT22;7950;42.744;23.174;2023-09-08T09:21:24;24.50;69.80
15700;DHT22;7950;42.744;23.174;2023-09-08T09:24:14;24.50;66.90
15700;DHT22;7950;42.744;23.174;2023-09-08T09:26:51;24.40;66.90
15700;DHT22;7950;42.744;23.174;2023-09-08T09:29:21;24.50;66.90
15700;DHT22;7950;42.744;23.174;2023-09-08T09:31:53;24.40;65.70
15700;DHT22;7950;42.744;23.174;2023-09-08T09:34:24;24.30;65.50
15700;DHT22;7950;42.744;23.174;2023-09-08T09:36:53;24.40;66.10
15700;DHT22;7950;42.744;23.174;2023-09-08T09:39:22;24.30;65.80
15700;DHT22;7950;42.744;23.174;2023-09-08T09:41:54;24.30;66.50
15700;DHT22;7950;42.744;23.174;2023-09-08T09:44:24;24.30;66.70
15700;DHT22;7950;42.744;23.174;2023-09-08T09:46:54;24.20;67.00
15700;DHT22;7950;42.744;23.174;2023-09-08T09:49:24;24.40;66.80
15700;DHT22;7950;42.744;23.174;2023-09-08T09:51:59;24.50;65.30
15700;DHT22;7950;42.744;23.174;2023-09-08T09:54:29;24.70;65.20
15700;DHT22;7950;42.744;23.174;2023-09-08T09:56:58;24.70;65.60
15700;DHT22;7950;42.744;23.174;2023-09-08T09:59:28;24.70;65.00
15700;DHT22;7950;42.744;23.174;2023-09-08T10:01:57;24.80;65.70
15700;DHT22;7950;42.744;23.174;2023-09-08T10:04:28;24.80;65.70
15700;DHT22;7950;42.744;23.174;2023-09-08T10:06:58;24.80;65.10
15700;DHT22;7950;42.744;23.174;2023-09-08T10:09:27;24.70;64.80
15700;DHT22;7950;42.744;23.174;2023-09-08T10:12:01;24.60;66.20
15700;DHT22;7950;42.744;23.174;2023-09-08T10:14:34;24.50;65.10
15700;DHT22;7950;42.744;23.174;2023-09-08T10:17:05;24.40;65.80
15700;DHT22;7950;42.744;23.174;2023-09-08T10:19:42;24.50;66.10
15700;DHT22;7950;42.744;23.174;2023-09-08T10:22:20;24.60;67.30
15700;DHT22;7950;42.744;23.174;2023-09-08T10:24:55;24.50;66.30
15700;DHT22;7950;42.744;23.174;2023-09-08T10:27:26;24.60;67.80
15700;DHT22;7950;42.744;23.174;2023-09-08T10:29:55;24.70;65.90
15700;DHT22;7950;42.744;23.174;2023-09-08T10:32:25;24.70;66.40
15700;DHT22;7950;42.744;23.174;2023-09-08T10:34:55;24.80;67.80
15700;DHT22;7950;42.744;23.174;2023-09-08T10:37:25;25.20;67.00
15700;DHT22;7950;42.744;23.174;2023-09-08T10:40:21;25.30;64.00
15700;DHT22;7950;42.744;23.174;2023-09-08T10:43:06;25.40;64.70
15700;DHT22;7950;42.744;23.174;2023-09-08T10:45:36;25.30;63.60
15700;DHT22;7950;42.744;23.174;2023-09-08T10:48:06;25.30;64.00
15700;DHT22;7950;42.744;23.174;2023-09-08T10:50:41;25.20;64.60
15700;DHT22;7950;42.744;23.174;2023-09-08T10:53:14;25.10;64.90
15700;DHT22;7950;42.744;23.174;2023-09-08T10:55:45;25.20;65.60
15700;DHT22;7950;42.744;23.174;2023-09-08T10:58:30;25.30;64.90
15700;DHT22;7950;42.744;23.174;2023-09-08T11:01:01;25.20;63.90
15700;DHT22;7950;42.744;23.174;2023-09-08T11:03:43;25.10;64.40
15700;DHT22;7950;42.744;23.174;2023-09-08T11:06:17;25.10;64.60
15700;DHT22;7950;42.744;23.174;2023-09-08T11:08:49;25.10;64.00
15700;DHT22;7950;42.744;23.174;2023-09-08T11:11:25;24.90;63.60
15700;DHT22;7950;42.744;23.174;2023-09-08T11:13:54;24.80;64.50
15700;DHT22;7950;42.744;23.174;2023-09-08T11:16:24;24.90;66.10
15700;DHT22;7950;42.744;23.174;2023-09-08T11:18:56;25.10;64.60
15700;DHT22;7950;42.744;23.174;2023-09-08T11:21:27;25.00;64.30
15700;DHT22;7950;42.744;23.174;2023-09-08T11:24:02;25.00;64.50
15700;DHT22;7950;42.744;23.174;2023-09-08T11:26:33;25.10;65.40
15700;DHT22;7950;42.744;23.174;2023-09-08T11:29:03;25.20;64.80
15700;DHT22;7950;42.744;23.174;2023-09-08T11:31:32;25.10;65.10
15700;DHT22;7950;42.744;23.174;2023-09-08T11:34:03;25.10;65.80
15700;DHT22;7950;42.744;23.174;2023-09-08T11:36:34;25.20;65.20
15700;DHT22;7950;42.744;23.174;2023-09-08T11:39:04;25.10;65.90
15700;DHT22;7950;42.744;23.174;2023-09-08T11:41:34;25.00;64.80
15700;DHT22;7950;42.744;23.174;2023-09-08T11:44:04;25.10;65.10
15700;DHT22;7950;42.744;23.174;2023-09-08T11:46:33;25.10;64.70
15700;DHT22;7950;42.744;23.174;2023-09-08T11:49:04;25.10;64.40
15700;DHT22;7950;42.744;23.174;2023-09-08T11:51:34;25.10;65.30
15700;DHT22;7950;42.744;23.174;2023-09-08T11:54:05;25.20;66.20
15700;DHT22;7950;42.744;23.174;2023-09-08T11:56:34;25.30;65.10
15700;DHT22;7950;42.744;23.174;2023-09-08T11:59:05;25.40;64.20
15700;DHT22;7950;42.744;23.174;2023-09-08T12:01:36;25.30;64.10
15700;DHT22;7950;42.744;23.174;2023-09-08T12:04:05;25.30;65.10
15700;DHT22;7950;42.744;23.174;2023-09-08T12:06:36;25.20;62.80
15700;DHT22;7950;42.744;23.174;2023-09-08T12:09:07;25.20;63.80
15700;DHT22;7950;42.744;23.174;2023-09-08T12:11:36;25.20;64.60
15700;DHT22;7950;42.744;23.174;2023-09-08T12:14:11;25.20;65.70
15700;DHT22;7950;42.744;23.174;2023-09-08T12:16:41;25.30;65.40
15700;DHT22;7950;42.744;23.174;2023-09-08T12:19:28;25.40;65.80
15700;DHT22;7950;42.744;23.174;2023-09-08T12:22:02;25.20;64.50
15700;DHT22;7950;42.744;23.174;2023-09-08T12:24:57;25.20;64.70
15700;DHT22;7950;42.744;23.174;2023-09-08T12:27:26;25.00;65.20
15700;DHT22;7950;42.744;23.174;2023-09-08T12:30:00;24.80;65.80
15700;DHT22;7950;42.744;23.174;2023-09-08T12:32:32;24.70;65.70
15700;DHT22;7950;42.744;23.174;2023-09-08T12:35:03;24.70;66.20
15700;DHT22;7950;42.744;23.174;2023-09-08T12:37:33;24.90;67.00
15700;DHT22;7950;42.744;23.174;2023-09-08T12:40:03;25.10;65.80
15700;DHT22;7950;42.744;23.174;2023-09-08T12:42:33;25.10;65.50
15700;DHT22;7950;42.744;23.174;2023-09-08T12:45:08;25.10;66.00
15700;DHT22;7950;42.744;23.174;2023-09-08T12:47:38;25.10;65.30
15700;DHT22;7950;42.744;23.174;2023-09-08T12:50:07;25.20;64.20
15700;DHT22;7950;42.744;23.174;2023-09-08T12:52:38;25.10;63.90
15700;DHT22;7950;42.744;23.174;2023-09-08T12:55:07;25.20;64.10
15700;DHT22;7950;42.744;23.174;2023-09-08T12:57:37;25.10;63.90
15700;DHT22;7950;42.744;23.174;2023-09-08T13:00:06;25.30;63.50
15700;DHT22;7950;42.744;23.174;2023-09-08T13:02:35;25.20;62.50
15700;DHT22;7950;42.744;23.174;2023-09-08T13:05:05;25.00;63.20
15700;DHT22;7950;42.744;23.174;2023-09-08T13:07:34;24.90;63.60
15700;DHT22;7950;42.744;23.174;2023-09-08T13:10:06;24.90;63.90
15700;DHT22;7950;42.744;23.174;2023-09-08T13:12:35;25.20;64.50
15700;DHT22;7950;42.744;23.174;2023-09-08T13:15:05;25.30;64.50
15700;DHT22;7950;42.744;23.174;2023-09-08T13:17:35;25.30;62.90
15700;DHT22;7950;42.744;23.174;2023-09-08T13:20:05;25.30;62.90
15700;DHT22;7950;42.744;23.174;2023-09-08T13:22:35;25.20;62.60
15700;DHT22;7950;42.744;23.174;2023-09-08T13:25:06;25.10;62.60
15700;DHT22;7950;42.744;23.174;2023-09-08T13:27:35;25.00;62.80
15700;DHT22;7950;42.744;23.174;2023-09-08T13:30:11;24.90;64.20
15700;DHT22;7950;42.744;23.174;2023-09-08T13:32:41;25.00;63.80
15700;DHT22;7950;42.744;23.174;2023-09-08T13:35:11;25.00;63.60
15700;DHT22;7950;42.744;23.174;2023-09-08T13:37:40;25.10;64.20
15700;DHT22;7950;42.744;23.174;2023-09-08T13:40:11;25.10;61.80
15700;DHT22;7950;42.744;23.174;2023-09-08T13:42:41;25.00;62.80
15700;DHT22;7950;42.744;23.174;2023-09-08T13:45:10;24.90;62.70
15700;DHT22;7950;42.744;23.174;2023-09-08T13:47:39;24.80;63.80
15700;DHT22;7950;42.744;23.174;2023-09-08T13:50:09;24.80;64.00
15700;DHT22;7950;42.744;23.174;2023-09-08T13:52:40;24.90;65.70
15700;DHT22;7950;42.744;23.174;2023-09-08T13:55:11;25.00;65.40
15700;DHT22;7950;42.744;23.174;2023-09-08T13:57:43;25.10;65.10
15700;DHT22;7950;42.744;23.174;2023-09-08T14:00:15;25.00;64.90
15700;DHT22;7950;42.744;23.174;2023-09-08T14:02:50;24.90;65.60
15700;DHT22;7950;42.744;23.174;2023-09-08T14:05:25;24.80;66.00
15700;DHT22;7950;42.744;23.174;2023-09-08T14:08:01;24.70;65.30
15700;DHT22;7950;42.744;23.174;2023-09-08T14:10:36;24.60;66.70
15700;DHT22;7950;42.744;23.174;2023-09-08T14:13:16;24.40;66.90
15700;DHT22;7950;42.744;23.174;2023-09-08T14:15:45;24.40;67.10
15700;DHT22;7950;42.744;23.174;2023-09-08T14:18:14;24.40;67.80
15700;DHT22;7950;42.744;23.174;2023-09-08T14:20:43;24.40;67.80
15700;DHT22;7950;42.744;23.174;2023-09-08T14:23:11;24.40;67.70
15700;DHT22;7950;42.744;23.174;2023-09-08T14:25:41;24.40;67.80
15700;DHT22;7950;42.744;23.174;2023-09-08T14:28:10;24.30;68.70
15700;DHT22;7950;42.744;23.174;2023-09-08T14:30:39;24.20;68.90
15700;DHT22;7950;42.744;23.174;2023-09-08T14:33:08;24.20;69.10
15700;DHT22;7950;42.744;23.174;2023-09-08T14:35:41;24.10;69.20
15700;DHT22;7950;42.744;23.174;2023-09-08T14:38:10;24.10;68.80
15700;DHT22;7950;42.744;23.174;2023-09-08T14:40:41;24.00;68.50
15700;DHT22;7950;42.744;23.174;2023-09-08T14:43:10;24.00;68.50
15700;DHT22;7950;42.744;23.174;2023-09-08T14:45:39;24.00;67.50
15700;DHT22;7950;42.744;23.174;2023-09-08T14:48:07;23.90;67.40
15700;DHT22;7950;42.744;23.174;2023-09-08T14:50:36;23.80;68.20
15700;DHT22;7950;42.744;23.174;2023-09-08T14:53:05;24.00;68.20
15700;DHT22;7950;42.744;23.174;2023-09-08T14:55:35;24.00;68.00
15700;DHT22;7950;42.744;23.174;2023-09-08T14:58:05;24.20;67.40
15700;DHT22;7950;42.744;23.174;2023-09-08T15:00:34;24.20;67.00
15700;DHT22;7950;42.744;23.174;2023-09-08T15:03:04;24.20;66.30
15700;DHT22;7950;42.744;23.174;2023-09-08T15:05:33;24.30;66.80
15700;DHT22;7950;42.744;23.174;2023-09-08T15:08:03;24.30;66.80
15700;DHT22;7950;42.744;23.174;2023-09-08T15:10:32;24.30;67.50
15700;DHT22;7950;42.744;23.174;2023-09-08T15:13:01;24.30;67.10
15700;DHT22;7950;42.744;23.174;2023-09-08T15:15:32;24.30;67.10
15700;DHT22;7950;42.744;23.174;2023-09-08T15:17:59;24.30;67.40
15700;DHT22;7950;42.744;23.174;2023-09-08T15:20:28;24.30;67.70
15700;DHT22;7950;42.744;23.174;2023-09-08T15:22:57;24.30;68.30
15700;DHT22;7950;42.744;23.174;2023-09-08T15:25:26;24.30;68.80
15700;DHT22;7950;42.744;23.174;2023-09-08T15:27:54;24.20;67.40
15700;DHT22;7950;42.744;23.174;2023-09-08T15:30:23;24.10;67.80
15700;DHT22;7950;42.744;23.174;2023-09-08T15:32:54;24.00;68.70
15700;DHT22;7950;42.744;23.174;2023-09-08T15:35:23;23.90;69.00
15700;DHT22;7950;42.744;23.174;2023-09-08T15:37:52;23.90;69.30
15700;DHT22;7950;42.744;23.174;2023-09-08T15:40:21;23.80;70.00
15700;DHT22;7950;42.744;23.174;2023-09-08T15:42:49;23.70;69.40
15700;DHT22;7950;42.744;23.174;2023-09-08T15:45:19;23.70;69.20
15700;DHT22;7950;42.744;23.174;2023-09-08T15:47:47;23.70;69.50